createdAt,value
2023-03-29T00:02:04.261Z,4.95
2023-03-29T00:04:31.383Z,5.60
2023-03-29T00:07:03.911Z,6.03
2023-03-29T00:09:33.261Z,8.55
2023-03-29T00:12:01.547Z,10.10
2023-03-29T00:14:30.722Z,7.75
2023-03-29T00:16:59.128Z,5.47
2023-03-29T00:19:26.203Z,7.25
2023-03-29T00:21:53.196Z,9.93
2023-03-29T00:24:21.163Z,8.20
2023-03-29T00:26:48.412Z,9.55
2023-03-29T00:29:16.037Z,11.10
2023-03-29T00:31:45.778Z,11.23
2023-03-29T00:34:12.696Z,5.95
2023-03-29T00:36:40.605Z,6.95
2023-03-29T00:39:07.420Z,7.38
2023-03-29T00:41:34.401Z,7.22
2023-03-29T00:44:05.585Z,6.78
2023-03-29T00:46:34.814Z,6.85
2023-03-29T00:49:12.642Z,7.85
2023-03-29T00:51:41.410Z,5.05
2023-03-29T00:54:14.797Z,8.90
2023-03-29T00:56:47.416Z,7.93
2023-03-29T00:59:19.330Z,10.00
2023-03-29T01:01:54.598Z,8.23
2023-03-29T01:05:05.570Z,5.70
2023-03-29T01:07:50.994Z,7.00
2023-03-29T01:10:32.347Z,8.65
2023-03-29T01:13:09.500Z,7.15
2023-03-29T01:15:39.708Z,6.80
2023-03-29T01:18:06.715Z,5.97
2023-03-29T01:21:23.480Z,5.55
2023-03-29T01:24:50.415Z,11.15
2023-03-29T01:27:49.804Z,10.75
2023-03-29T01:30:26.944Z,4.60
2023-03-29T01:33:24.298Z,8.15
2023-03-29T01:36:17.357Z,6.60
2023-03-29T01:38:51.597Z,4.03
2023-03-29T01:41:18.440Z,7.05
2023-03-29T01:44:00.346Z,11.20
2023-03-29T01:46:47.985Z,5.32
2023-03-29T01:49:27.598Z,8.43
2023-03-29T01:52:24.307Z,11.27
2023-03-29T01:55:04.737Z,6.88
2023-03-29T01:57:33.578Z,5.20
2023-03-29T02:00:07.187Z,8.00
2023-03-29T02:02:34.606Z,11.93
2023-03-29T02:05:01.596Z,7.03
2023-03-29T02:07:37.266Z,5.93
2023-03-29T02:10:06.932Z,8.23
2023-03-29T02:12:34.231Z,4.90
2023-03-29T02:15:01.173Z,5.95
2023-03-29T02:17:28.667Z,5.85
2023-03-29T02:20:14.912Z,5.70
2023-03-29T02:22:52.596Z,11.85
2023-03-29T02:25:19.910Z,8.60
2023-03-29T02:27:46.736Z,5.47
2023-03-29T02:30:17.061Z,6.28
2023-03-29T02:32:56.687Z,4.60
2023-03-29T02:35:35.020Z,6.95
2023-03-29T02:38:10.462Z,5.63
2023-03-29T02:40:39.153Z,5.93
2023-03-29T02:43:08.289Z,6.28
2023-03-29T02:45:37.324Z,5.05
2023-03-29T02:48:10.271Z,5.78
2023-03-29T02:53:52.308Z,4.05
2023-03-29T02:56:20.564Z,6.78
2023-03-29T02:58:47.365Z,5.65
2023-03-29T03:01:16.091Z,5.90
2023-03-29T03:03:43.051Z,6.20
2023-03-29T03:06:09.983Z,9.60
2023-03-29T03:08:37.422Z,5.18
2023-03-29T03:11:04.530Z,8.45
2023-03-29T03:13:31.365Z,6.30
2023-03-29T03:15:58.198Z,5.95
2023-03-29T03:18:25.060Z,8.23
2023-03-29T03:21:01.723Z,4.35
2023-03-29T03:23:29.457Z,6.10
2023-03-29T03:25:56.980Z,11.73
2023-03-29T03:28:24.513Z,7.65
2023-03-29T03:30:51.298Z,4.30
2023-03-29T03:33:19.323Z,4.35
2023-03-29T03:35:48.776Z,7.43
2023-03-29T03:38:15.606Z,4.05
2023-03-29T03:40:42.624Z,5.70
2023-03-29T03:43:09.985Z,6.05
2023-03-29T03:45:36.846Z,6.35
2023-03-29T03:48:03.717Z,8.52
2023-03-29T03:50:30.523Z,9.38
2023-03-29T03:52:57.350Z,4.68
2023-03-29T03:55:24.177Z,5.28
2023-03-29T03:57:51.983Z,7.15
2023-03-29T04:00:21.641Z,10.23
2023-03-29T04:02:48.936Z,6.25
2023-03-29T04:05:17.179Z,4.68
2023-03-29T04:07:44.102Z,5.93
2023-03-29T04:10:11.348Z,3.97
2023-03-29T04:12:39.602Z,6.30
2023-03-29T04:15:07.411Z,5.75
2023-03-29T04:17:34.444Z,5.47
2023-03-29T04:20:03.496Z,6.13
2023-03-29T04:22:30.369Z,7.05
2023-03-29T04:24:57.156Z,5.72
2023-03-29T04:27:23.945Z,7.85
2023-03-29T04:29:50.716Z,6.60
2023-03-29T04:32:17.791Z,9.18
2023-03-29T04:34:44.550Z,7.47
2023-03-29T04:37:11.294Z,6.70
2023-03-29T04:39:38.781Z,5.55
2023-03-29T04:42:06.218Z,6.90
2023-03-29T04:44:33.950Z,7.97
2023-03-29T04:47:01.803Z,6.88
2023-03-29T04:49:29.054Z,7.47
2023-03-29T04:51:55.926Z,4.28
2023-03-29T04:54:22.902Z,8.45
2023-03-29T04:56:51.619Z,8.00
2023-03-29T04:59:18.881Z,8.13
2023-03-29T05:01:45.763Z,5.28
2023-03-29T05:04:13.841Z,10.35
2023-03-29T05:06:41.416Z,6.80
2023-03-29T05:09:08.793Z,6.20
2023-03-29T05:11:36.204Z,8.52
2023-03-29T05:14:07.149Z,8.85
2023-03-29T05:16:34.634Z,4.22
2023-03-29T05:19:01.965Z,10.60
2023-03-29T05:21:28.825Z,4.53
2023-03-29T05:23:55.794Z,7.20
2023-03-29T05:26:23.774Z,6.43
2023-03-29T05:28:50.870Z,7.78
2023-03-29T05:31:18.536Z,6.18
2023-03-29T05:33:47.721Z,6.78
2023-03-29T05:36:18.850Z,6.88
2023-03-29T05:38:46.807Z,8.60
2023-03-29T05:41:15.989Z,6.80
2023-03-29T05:43:42.899Z,6.05
2023-03-29T05:46:10.067Z,5.15
2023-03-29T05:48:37.279Z,6.97
2023-03-29T05:51:04.834Z,5.50
2023-03-29T05:53:32.179Z,6.57
2023-03-29T05:55:59.157Z,6.35
2023-03-29T05:58:26.526Z,6.70
2023-03-29T06:00:53.506Z,5.82
2023-03-29T06:03:25.315Z,8.60
2023-03-29T06:05:59.536Z,7.30
2023-03-29T06:08:27.875Z,5.03
2023-03-29T06:11:10.855Z,7.68
2023-03-29T06:13:38.796Z,5.25
2023-03-29T06:16:10.839Z,7.13
2023-03-29T06:18:41.335Z,4.60
2023-03-29T06:21:09.411Z,6.20
2023-03-29T06:23:36.897Z,5.50
2023-03-29T06:26:05.962Z,6.72
2023-03-29T06:28:33.016Z,7.78
2023-03-29T06:31:03.019Z,11.00
2023-03-29T06:33:32.437Z,6.32
2023-03-29T06:35:59.750Z,7.28
2023-03-29T06:38:28.318Z,3.58
2023-03-29T06:41:08.037Z,8.38
2023-03-29T06:43:34.894Z,6.28
2023-03-29T06:46:02.658Z,5.25
2023-03-29T06:48:30.351Z,6.97
2023-03-29T06:50:57.262Z,7.15
2023-03-29T06:53:24.376Z,10.13
2023-03-29T06:55:52.428Z,5.13
2023-03-29T06:58:19.636Z,7.97
2023-03-29T07:00:47.478Z,8.13
2023-03-29T07:03:20.235Z,8.57
2023-03-29T07:05:47.746Z,8.05
2023-03-29T07:08:16.353Z,6.50
2023-03-29T07:10:47.478Z,5.20
2023-03-29T07:13:15.426Z,6.05
2023-03-29T07:15:43.664Z,5.07
2023-03-29T07:18:12.458Z,5.90
2023-03-29T07:20:40.618Z,4.90
2023-03-29T07:23:09.337Z,7.32
2023-03-29T07:25:36.889Z,7.43
2023-03-29T07:28:04.208Z,7.88
2023-03-29T07:30:32.660Z,6.43
2023-03-29T07:32:59.783Z,8.40
2023-03-29T07:35:27.230Z,7.03
2023-03-29T07:37:58.349Z,6.20
2023-03-29T07:40:27.255Z,7.97
2023-03-29T07:42:56.564Z,5.38
2023-03-29T07:45:27.019Z,8.57
2023-03-29T07:47:58.733Z,7.82
2023-03-29T07:50:26.662Z,6.35
2023-03-29T07:52:55.104Z,10.85
2023-03-29T07:55:22.220Z,8.57
2023-03-29T07:57:50.182Z,6.28
2023-03-29T08:00:19.776Z,8.85
2023-03-29T08:02:50.788Z,7.25
2023-03-29T08:05:29.157Z,8.57
2023-03-29T08:08:00.974Z,8.10
2023-03-29T08:10:28.402Z,7.97
2023-03-29T08:12:55.696Z,10.25
2023-03-29T08:15:22.810Z,7.53
2023-03-29T08:17:49.932Z,6.38
2023-03-29T08:20:16.797Z,7.00
2023-03-29T08:22:43.897Z,10.38
2023-03-29T08:25:12.006Z,9.00
2023-03-29T08:27:40.063Z,8.25
2023-03-29T08:30:09.516Z,9.05
2023-03-29T08:32:37.742Z,5.72
2023-03-29T08:35:06.943Z,6.20
2023-03-29T08:37:33.859Z,6.75
2023-03-29T08:40:01.340Z,4.45
2023-03-29T08:43:07.240Z,6.13
2023-03-29T08:46:03.429Z,4.53
2023-03-29T08:48:33.943Z,5.22
2023-03-29T08:51:12.255Z,6.90
2023-03-29T08:53:46.155Z,5.60
2023-03-29T08:56:18.583Z,7.18
2023-03-29T08:58:46.704Z,10.27
2023-03-29T09:01:13.813Z,6.63
2023-03-29T09:04:10.194Z,5.40
2023-03-29T09:06:40.600Z,4.47
2023-03-29T09:09:15.746Z,4.60
2023-03-29T09:11:54.884Z,5.43
2023-03-29T09:14:41.995Z,6.35
2023-03-29T09:17:31.015Z,5.78
2023-03-29T09:20:52.438Z,6.00
2023-03-29T09:23:52.792Z,4.35
2023-03-29T09:26:31.401Z,9.52
2023-03-29T09:29:20.433Z,4.43
2023-03-29T09:31:48.636Z,5.55
2023-03-29T09:34:21.974Z,3.88
2023-03-29T09:37:28.766Z,4.28
2023-03-29T09:39:57.536Z,5.78
2023-03-29T09:42:27.485Z,4.05
2023-03-29T09:45:08.509Z,4.25
2023-03-29T09:47:56.982Z,4.40
2023-03-29T09:50:36.771Z,6.72
2023-03-29T09:53:05.031Z,5.70
2023-03-29T09:55:36.173Z,5.93
2023-03-29T09:58:14.018Z,4.93
2023-03-29T10:00:41.253Z,3.60
2023-03-29T10:03:10.610Z,4.68
2023-03-29T10:05:38.300Z,5.10
2023-03-29T10:08:19.771Z,5.10
2023-03-29T10:10:47.494Z,8.73
2023-03-29T10:13:28.285Z,6.70
2023-03-29T10:16:02.426Z,5.45
2023-03-29T10:18:32.149Z,5.55
2023-03-29T10:21:03.887Z,6.47
2023-03-29T10:23:34.410Z,4.93
2023-03-29T10:26:05.741Z,5.95
2023-03-29T10:28:33.996Z,4.55
2023-03-29T10:31:03.724Z,4.95
2023-03-29T10:33:34.267Z,4.28
2023-03-29T10:36:05.363Z,3.72
2023-03-29T10:38:32.505Z,3.70
2023-03-29T10:41:27.097Z,4.03
2023-03-29T10:43:54.554Z,3.30
2023-03-29T10:46:31.333Z,5.35
2023-03-29T10:49:06.068Z,6.43
2023-03-29T10:51:34.439Z,7.50
2023-03-29T10:54:03.275Z,4.80
2023-03-29T10:56:42.011Z,5.05
2023-03-29T10:59:30.770Z,4.72
2023-03-29T11:02:16.969Z,4.18
2023-03-29T11:05:06.111Z,3.03
2023-03-29T11:08:08.931Z,4.88
2023-03-29T11:11:11.484Z,5.90
2023-03-29T11:13:47.109Z,3.83
2023-03-29T11:16:57.896Z,6.80
2023-03-29T11:19:52.857Z,4.55
2023-03-29T11:22:40.378Z,6.32
2023-03-29T11:25:20.029Z,4.68
2023-03-29T11:28:17.337Z,4.53
2023-03-29T11:31:08.046Z,3.67
2023-03-29T11:34:11.604Z,4.75
2023-03-29T11:37:03.981Z,4.22
2023-03-29T11:39:42.593Z,3.40
2023-03-29T11:42:25.179Z,8.10
2023-03-29T11:44:55.716Z,4.10
2023-03-29T11:47:29.015Z,6.45
2023-03-29T11:50:51.286Z,4.75
2023-03-29T11:53:31.730Z,5.05
2023-03-29T11:56:15.427Z,3.10
2023-03-29T11:58:48.978Z,3.90
2023-03-29T12:01:28.948Z,4.38
2023-03-29T12:04:24.020Z,4.35
2023-03-29T12:07:04.836Z,5.50
2023-03-29T12:09:53.288Z,7.45
2023-03-29T12:13:02.409Z,3.47
2023-03-29T12:15:38.412Z,4.47
2023-03-29T12:18:21.526Z,4.60
2023-03-29T12:20:57.622Z,3.75
2023-03-29T12:23:24.621Z,4.55
2023-03-29T12:26:19.583Z,4.93
2023-03-29T12:28:58.523Z,5.50
2023-03-29T12:31:40.326Z,4.25
2023-03-29T12:34:51.588Z,5.22
2023-03-29T12:37:39.421Z,5.80
2023-03-29T12:40:16.892Z,5.45
2023-03-29T12:43:34.130Z,7.38
2023-03-29T12:46:08.698Z,5.55
2023-03-29T12:48:38.992Z,4.15
2023-03-29T12:51:14.036Z,3.70
2023-03-29T12:53:42.957Z,5.47
2023-03-29T12:56:14.287Z,3.72
2023-03-29T12:58:53.292Z,4.43
2023-03-29T13:01:31.989Z,4.68
2023-03-29T13:04:01.909Z,9.65
2023-03-29T13:06:34.446Z,4.97
2023-03-29T13:09:20.906Z,5.00
2023-03-29T13:11:57.448Z,4.03
2023-03-29T13:14:34.383Z,6.65
2023-03-29T13:17:17.561Z,4.43
2023-03-29T13:19:47.712Z,3.60
2023-03-29T13:22:35.613Z,4.45
2023-03-29T13:26:02.181Z,5.13
2023-03-29T13:29:32.350Z,8.38
2023-03-29T13:32:43.327Z,4.43
2023-03-29T13:35:54.947Z,6.13
2023-03-29T13:38:26.220Z,5.93
2023-03-29T13:40:52.984Z,7.78
2023-03-29T13:43:22.187Z,16.52
2023-03-29T13:46:13.605Z,5.03
2023-03-29T13:48:41.342Z,5.07
2023-03-29T13:51:14.345Z,5.93
2023-03-29T13:53:50.101Z,5.22
2023-03-29T13:56:24.662Z,6.85
2023-03-29T13:59:05.862Z,6.35
2023-03-29T14:01:46.420Z,4.32
2023-03-29T14:04:43.229Z,5.93
2023-03-29T14:07:14.481Z,5.40
2023-03-29T14:09:46.287Z,8.38
2023-03-29T14:12:15.056Z,6.53
2023-03-29T14:14:58.925Z,6.20
2023-03-29T14:17:26.778Z,5.88
2023-03-29T14:19:58.018Z,5.93
2023-03-29T14:22:32.572Z,5.80
2023-03-29T14:25:07.315Z,5.00
2023-03-29T14:27:37.237Z,9.95
2023-03-29T14:30:29.016Z,7.93
2023-03-29T14:32:56.723Z,5.95
2023-03-29T14:35:33.912Z,5.32
2023-03-29T14:38:04.856Z,6.55
2023-03-29T14:40:32.875Z,7.88
2023-03-29T14:43:06.781Z,10.57
2023-03-29T14:45:33.888Z,7.95
2023-03-29T14:48:01.299Z,7.22
2023-03-29T14:50:31.073Z,7.07
2023-03-29T14:53:01.399Z,6.72
2023-03-29T14:55:32.780Z,5.93
2023-03-29T14:58:00.528Z,10.25
2023-03-29T15:00:38.841Z,6.65
2023-03-29T15:03:15.022Z,7.57
2023-03-29T15:05:49.118Z,5.75
2023-03-29T15:08:30.027Z,6.10
2023-03-29T15:10:57.537Z,6.18
2023-03-29T15:13:25.307Z,6.30
2023-03-29T15:16:00.918Z,9.02
2023-03-29T15:18:35.094Z,9.02
2023-03-29T15:21:02.635Z,5.70
2023-03-29T15:23:47.106Z,8.02
2023-03-29T15:26:21.688Z,7.28
2023-03-29T15:29:03.905Z,9.98
2023-03-29T15:31:39.638Z,7.50
2023-03-29T15:34:13.005Z,15.77
2023-03-29T15:36:47.545Z,25.15
2023-03-29T15:39:17.075Z,23.67
2023-03-29T15:41:49.116Z,15.68
2023-03-29T15:44:17.814Z,10.57
2023-03-29T15:46:44.856Z,8.02
2023-03-29T15:49:13.133Z,8.43
2023-03-29T15:51:40.922Z,7.88
2023-03-29T15:54:09.066Z,12.48
2023-03-29T15:56:46.453Z,8.65
2023-03-29T15:59:13.330Z,7.68
2023-03-29T16:01:41.706Z,9.00
2023-03-29T16:04:15.521Z,13.15
2023-03-29T16:06:44.296Z,13.15
2023-03-29T16:09:14.469Z,6.47
2023-03-29T16:11:43.571Z,7.97
2023-03-29T16:14:22.911Z,8.93
2023-03-29T16:16:51.549Z,6.70
2023-03-29T16:19:19.420Z,13.98
2023-03-29T16:21:46.298Z,7.57
2023-03-29T16:24:19.818Z,10.00
2023-03-29T16:26:47.563Z,6.25
2023-03-29T16:29:17.327Z,7.07
2023-03-29T16:31:46.495Z,6.10
2023-03-29T16:34:14.727Z,10.35
2023-03-29T16:36:43.738Z,10.38
2023-03-29T16:39:13.767Z,7.65
2023-03-29T16:41:42.445Z,8.55
2023-03-29T16:44:16.893Z,9.10
2023-03-29T16:46:44.294Z,9.38
2023-03-29T16:49:18.712Z,13.38
2023-03-29T16:51:48.155Z,9.60
2023-03-29T16:54:17.168Z,8.10
2023-03-29T16:56:44.503Z,10.80
2023-03-29T16:59:11.967Z,7.88
2023-03-29T17:01:40.624Z,5.18
2023-03-29T17:04:08.034Z,6.82
2023-03-29T17:06:35.164Z,7.95
2023-03-29T17:09:02.601Z,6.55
2023-03-29T17:11:29.556Z,6.82
2023-03-29T17:13:56.844Z,4.95
2023-03-29T17:16:24.233Z,18.88
2023-03-29T17:18:51.300Z,15.30
2023-03-29T17:21:18.127Z,17.23
2023-03-29T17:23:44.991Z,14.10
2023-03-29T17:26:11.933Z,11.73
2023-03-29T17:28:39.027Z,12.07
2023-03-29T17:31:07.717Z,14.95
2023-03-29T17:33:35.911Z,24.73
2023-03-29T17:36:05.040Z,18.92
2023-03-29T17:38:34.100Z,8.88
2023-03-29T17:41:02.786Z,10.20
2023-03-29T17:43:29.716Z,8.13
2023-03-29T17:45:56.603Z,9.15
2023-03-29T17:48:24.280Z,9.40
2023-03-29T17:50:51.674Z,12.75
2023-03-29T17:53:18.507Z,11.25
2023-03-29T17:55:45.779Z,12.77
2023-03-29T17:58:12.731Z,8.32
2023-03-29T18:00:39.657Z,8.48
2023-03-29T18:03:06.684Z,10.45
2023-03-29T18:05:35.341Z,10.50
2023-03-29T18:08:02.577Z,9.68
2023-03-29T18:10:30.243Z,7.57
2023-03-29T18:12:57.174Z,17.63
2023-03-29T18:15:24.221Z,7.13
2023-03-29T18:17:51.059Z,12.30
2023-03-29T18:20:18.319Z,23.40
2023-03-29T18:22:45.411Z,11.50
2023-03-29T18:25:12.631Z,14.55
2023-03-29T18:27:40.387Z,13.90
2023-03-29T18:30:08.671Z,11.70
2023-03-29T18:32:36.290Z,23.33
2023-03-29T18:35:03.563Z,14.65
2023-03-29T18:37:30.484Z,11.18
2023-03-29T18:39:57.251Z,10.68
2023-03-29T18:42:24.119Z,18.55
2023-03-29T18:44:51.321Z,17.50
2023-03-29T18:47:21.516Z,17.17
2023-03-29T18:49:48.670Z,18.02
2023-03-29T18:52:15.469Z,16.17
2023-03-29T18:54:42.536Z,25.08
2023-03-29T18:57:09.418Z,17.15
2023-03-29T18:59:36.595Z,27.20
2023-03-29T19:02:04.119Z,28.52
2023-03-29T19:04:31.091Z,23.13
2023-03-29T19:06:59.767Z,21.48
2023-03-29T19:09:27.559Z,12.90
2023-03-29T19:11:54.474Z,25.40
2023-03-29T19:14:24.092Z,16.27
2023-03-29T19:16:52.393Z,11.15
2023-03-29T19:19:21.791Z,12.43
2023-03-29T19:21:49.519Z,10.05
2023-03-29T19:24:17.245Z,11.13
2023-03-29T19:26:44.682Z,9.57
2023-03-29T19:29:11.831Z,9.85
2023-03-29T19:31:38.986Z,7.65
2023-03-29T19:34:06.897Z,15.00
2023-03-29T19:36:33.877Z,9.32
2023-03-29T19:39:01.166Z,10.02
2023-03-29T19:41:28.359Z,8.85
2023-03-29T19:43:55.383Z,9.90
2023-03-29T19:46:22.391Z,7.82
2023-03-29T19:48:49.250Z,18.05
2023-03-29T19:51:16.723Z,27.08
2023-03-29T19:53:43.644Z,20.38
2023-03-29T19:56:11.000Z,19.25
2023-03-29T19:58:38.011Z,38.50
2023-03-29T20:01:06.036Z,16.52
2023-03-29T20:03:34.134Z,16.75
2023-03-29T20:06:01.479Z,12.32
2023-03-29T20:08:28.324Z,12.10
2023-03-29T20:11:01.846Z,8.20
2023-03-29T20:13:38.324Z,9.02
2023-03-29T20:16:18.094Z,8.57
2023-03-29T20:18:45.661Z,9.70
2023-03-29T20:21:16.528Z,8.65
2023-03-29T20:23:44.273Z,9.40
2023-03-29T20:26:11.082Z,7.20
2023-03-29T20:28:38.023Z,8.98
2023-03-29T20:31:07.386Z,10.82
2023-03-29T20:33:34.343Z,11.07
2023-03-29T20:36:01.390Z,9.45
2023-03-29T20:38:28.361Z,9.55
2023-03-29T20:40:55.366Z,8.02
2023-03-29T20:43:22.519Z,9.40
2023-03-29T20:45:53.559Z,11.10
2023-03-29T20:48:24.332Z,9.35
2023-03-29T20:50:51.584Z,9.77
2023-03-29T20:53:20.297Z,10.27
2023-03-29T20:55:47.832Z,10.05
2023-03-29T20:58:15.685Z,9.25
2023-03-29T21:00:42.816Z,9.18
2023-03-29T21:03:10.793Z,7.78
2023-03-29T21:05:37.791Z,9.15
2023-03-29T21:08:04.815Z,10.90
2023-03-29T21:10:31.647Z,8.43
2023-03-29T21:13:00.428Z,9.52
2023-03-29T21:15:30.526Z,9.60
2023-03-29T21:17:57.968Z,9.60
2023-03-29T21:20:24.935Z,8.18
2023-03-29T21:22:51.804Z,10.43
2023-03-29T21:25:19.012Z,7.93
2023-03-29T21:27:46.151Z,10.73
2023-03-29T21:30:13.431Z,7.53
2023-03-29T21:32:40.965Z,10.40
2023-03-29T21:35:08.970Z,8.32
2023-03-29T21:37:36.010Z,7.95
2023-03-29T21:40:07.260Z,8.52
2023-03-29T21:42:34.458Z,8.25
2023-03-29T21:45:01.558Z,9.65
2023-03-29T21:47:29.044Z,9.77
2023-03-29T21:49:55.965Z,8.43
2023-03-29T21:52:22.922Z,10.80
2023-03-29T21:54:49.814Z,10.27
2023-03-29T21:57:16.709Z,9.15
2023-03-29T21:59:43.573Z,12.48
2023-03-29T22:02:10.555Z,10.38
2023-03-29T22:04:37.888Z,12.10
2023-03-29T22:07:05.676Z,9.95
2023-03-29T22:09:34.991Z,11.65
2023-03-29T22:12:03.158Z,10.15
2023-03-29T22:14:35.113Z,10.10
2023-03-29T22:17:05.785Z,10.07
2023-03-29T22:19:34.900Z,9.18
2023-03-29T22:22:01.763Z,7.80
2023-03-29T22:24:29.063Z,12.20
2023-03-29T22:26:56.153Z,8.98
2023-03-29T22:29:23.168Z,9.98
2023-03-29T22:31:50.117Z,10.27
2023-03-29T22:34:17.035Z,9.23
2023-03-29T22:36:51.179Z,9.32
2023-03-29T22:39:17.998Z,8.45
2023-03-29T22:41:44.768Z,9.02
2023-03-29T22:44:11.909Z,8.32
2023-03-29T22:46:39.415Z,10.07
2023-03-29T22:49:06.441Z,9.65
2023-03-29T22:51:33.252Z,11.70
2023-03-29T22:54:00.099Z,8.68
2023-03-29T22:56:27.133Z,10.70
2023-03-29T22:58:54.111Z,9.32
2023-03-29T23:01:21.132Z,11.88
2023-03-29T23:03:48.058Z,10.00
2023-03-29T23:06:14.937Z,7.40
2023-03-29T23:08:41.796Z,13.60
2023-03-29T23:11:08.677Z,8.45
2023-03-29T23:13:35.724Z,8.88
2023-03-29T23:16:03.745Z,9.63
2023-03-29T23:18:34.564Z,11.07
2023-03-29T23:21:02.438Z,15.32
2023-03-29T23:23:29.469Z,8.20
2023-03-29T23:25:56.562Z,7.53
2023-03-29T23:28:27.305Z,11.50
2023-03-29T23:31:09.317Z,10.05
2023-03-29T23:33:41.610Z,8.67
2023-03-29T23:36:14.846Z,11.43
2023-03-29T23:38:43.350Z,11.35
2023-03-29T23:41:12.666Z,10.73
2023-03-29T23:43:42.160Z,11.90
2023-03-29T23:46:14.054Z,13.23
2023-03-29T23:48:48.871Z,16.45
2023-03-29T23:51:23.561Z,16.70
2023-03-29T23:53:50.832Z,21.17
2023-03-29T23:56:17.589Z,19.95
2023-03-29T23:58:44.714Z,19.15
